Impacts METAR Board INFO
IDs:

KBOS - Boston/Logan Intl, MA, US

Updated at: 2304 UTC 21 Feb 2018
Potential Impact None Slight Moderate High
Time21/11Z 21/12Z 21/13Z 21/14Z 21/15Z 21/16Z 21/17Z 21/18Z 21/19Z 21/20Z 21/21Z 21/22Z 21/23Z
VIS 10 10 10 10 10 10 10 10 10 10 10
CIG 11 11 250 250 250 250 250 220 220 -- --
CoverOVCOVCBKNBKNBKNBKNBKNBKNBKNSCTSCT
FltCatMVFRMVFRVFRVFRVFRVFRVFRVFRVFRVFRVFR
WX----------------------
WDir240240230230230200220210200190210
WSpd 19 17 18 18 19 17 10 13 11 13 12
WGst 27 23 28 24 -- -- -- -- -- -- --
Raw hourly METARs


KBOS 211254Z 24019G27KT 10SM OVC011 14/13 A3020 RMK AO2 PK WND 25027/1253 SLP227 T01440133
KBOS 211354Z 24017G23KT 10SM OVC011 16/14 A3020 RMK AO2 PK WND 23028/1258 SLP227 BINOVC T01610139
KBOS 211503Z 23018G28KT 10SM SCT014 BKN250 17/14 A3019 RMK AO2 PK WND 24028/1501 T01720139
KBOS 211554Z 23018G24KT 10SM FEW030 BKN250 18/13 A3018 RMK AO2 PK WND 22028/1532 SLP219 T01830133
KBOS 211654Z 23019KT 10SM BKN250 20/14 A3015 RMK AO2 SLP210 T02000139
KBOS 211754Z 20017KT 10SM BKN250 21/14 A3013 RMK AO2 SLP201 T02060139 10211 20133 58025
KBOS 211854Z 22010KT 10SM BKN250 22/14 A3010 RMK AO2 SLP192 T02170139
KBOS 211954Z 21013KT 10SM BKN220 22/13 A3010 RMK AO2 SLP191 T02170133
KBOS 212054Z 20011KT 10SM BKN220 22/13 A3009 RMK AO2 SLP190 T02170133 56011
KBOS 212154Z 19013KT 10SM SCT220 19/13 A3010 RMK AO2 SLP193 T01890128
KBOS 212254Z 21012KT 10SM FEW050 SCT220 19/13 A3013 RMK AO2 SLP203 T01890133